CFE301 EGLC-EGAC
Flight info
| Callsign | CFE301 |
|---|---|
| Flight time | 1h 1m |
| Altitude | 38000 |
| Route | BPK UN601 LESTA UP6 RODOL UM65 TENSO L603 BELOX DCT REMSI DCT NINEB M148 MAGEE |
| Aircraft | E190/M-SDE2E3GHILORVWXY/SB1 |
Departure
| Time | 2026-04-26 19:00 |
|---|---|
| Airport | London City Airport (EGLC) |
Arrival
| Time | 2026-04-26 20:01 |
|---|---|
| Airport | George Best Belfast City Airport (EGAC) |
| Time | Latitude | Longitude | Altitude | Speed | Heading |
|---|---|---|---|---|---|
| 2026-04-26 18:18 | 51.50440 | 0.04755 | 25 ft | 0 kts | 314° |
| 2026-04-26 18:57 | 51.50454 | 0.04741 | 26 ft | 4 kts | 333° |
| 2026-04-26 18:57 | 51.50471 | 0.04693 | 24 ft | 6 kts | 279° |
| 2026-04-26 18:58 | 51.50474 | 0.04604 | 24 ft | 9 kts | 272° |
| 2026-04-26 18:58 | 51.50477 | 0.04492 | 25 ft | 9 kts | 276° |
| 2026-04-26 18:58 | 51.50513 | 0.04443 | 24 ft | 7 kts | 349° |
| 2026-04-26 18:58 | 51.50554 | 0.04462 | 25 ft | 5 kts | 59° |
| 2026-04-26 18:59 | 51.50555 | 0.04493 | 24 ft | 0 kts | 92° |
| 2026-04-26 18:59 | 51.50550 | 0.04653 | 24 ft | 47 kts | 94° |
| 2026-04-26 18:59 | 51.50543 | 0.05382 | 24 ft | 107 kts | 95° |
| 2026-04-26 19:00 | 51.50480 | 0.06872 | 240 ft | 145 kts | 93° |
| 2026-04-26 19:00 | 51.50441 | 0.08494 | 1074 ft | 144 kts | 92° |
| 2026-04-26 19:00 | 51.50501 | 0.10193 | 1789 ft | 160 kts | 75° |
| 2026-04-26 19:00 | 51.51113 | 0.11733 | 2563 ft | 171 kts | 39° |
| 2026-04-26 19:01 | 51.52213 | 0.12616 | 2957 ft | 183 kts | 9° |
| 2026-04-26 19:01 | 51.53445 | 0.12330 | 3011 ft | 184 kts | 333° |
| 2026-04-26 19:01 | 51.54464 | 0.11122 | 2995 ft | 180 kts | 321° |
| 2026-04-26 19:01 | 51.55404 | 0.09815 | 3017 ft | 178 kts | 321° |
| 2026-04-26 19:02 | 51.56354 | 0.08529 | 3031 ft | 179 kts | 321° |
| 2026-04-26 19:02 | 51.57304 | 0.07270 | 3041 ft | 182 kts | 322° |
| 2026-04-26 19:02 | 51.58349 | 0.05890 | 3082 ft | 201 kts | 321° |
| 2026-04-26 19:02 | 51.59116 | 0.04987 | 3111 ft | 205 kts | 327° |
| 2026-04-26 19:03 | 51.60752 | 0.03451 | 3098 ft | 209 kts | 331° |
| 2026-04-26 19:03 | 51.62062 | 0.02269 | 2639 ft | 220 kts | 330° |
| 2026-04-26 19:03 | 51.63344 | 0.01041 | 2636 ft | 206 kts | 329° |
| 2026-04-26 19:03 | 51.64500 | -0.00134 | 2708 ft | 192 kts | 328° |
| 2026-04-26 19:04 | 51.65629 | -0.01294 | 2661 ft | 195 kts | 328° |
| 2026-04-26 19:04 | 51.66820 | -0.02498 | 2791 ft | 209 kts | 328° |
| 2026-04-26 19:04 | 51.68093 | -0.03779 | 3239 ft | 218 kts | 328° |
| 2026-04-26 19:04 | 51.69423 | -0.05113 | 3796 ft | 234 kts | 328° |
| 2026-04-26 19:05 | 51.72364 | -0.08058 | 4965 ft | 262 kts | 328° |
| 2026-04-26 19:05 | 51.73958 | -0.09658 | 5565 ft | 275 kts | 328° |
| 2026-04-26 19:05 | 51.75601 | -0.11307 | 6344 ft | 279 kts | 328° |
| 2026-04-26 19:06 | 51.77280 | -0.12915 | 7156 ft | 281 kts | 329° |
| 2026-04-26 19:06 | 51.78975 | -0.14494 | 7993 ft | 280 kts | 329° |
| 2026-04-26 19:06 | 51.80641 | -0.16055 | 8823 ft | 280 kts | 329° |
| 2026-04-26 19:06 | 51.82326 | -0.17648 | 9600 ft | 281 kts | 328° |
| 2026-04-26 19:07 | 51.84027 | -0.19266 | 10322 ft | 285 kts | 328° |
| 2026-04-26 19:07 | 51.85748 | -0.20907 | 10909 ft | 294 kts | 327° |
| 2026-04-26 19:07 | 51.87562 | -0.22641 | 11211 ft | 311 kts | 328° |
| 2026-04-26 19:07 | 51.89456 | -0.24447 | 11688 ft | 320 kts | 328° |
| 2026-04-26 19:08 | 51.91389 | -0.26290 | 12351 ft | 323 kts | 327° |
| 2026-04-26 19:08 | 51.93329 | -0.28144 | 13005 ft | 326 kts | 327° |
| 2026-04-26 19:08 | 51.95295 | -0.30021 | 13633 ft | 330 kts | 327° |
| 2026-04-26 19:08 | 51.97285 | -0.31924 | 14252 ft | 333 kts | 327° |
| 2026-04-26 19:09 | 51.99263 | -0.33818 | 14827 ft | 335 kts | 327° |
| 2026-04-26 19:09 | 52.01276 | -0.35746 | 15433 ft | 337 kts | 327° |
| 2026-04-26 19:09 | 52.03306 | -0.37693 | 16033 ft | 339 kts | 327° |
| 2026-04-26 19:09 | 52.05343 | -0.39651 | 16644 ft | 342 kts | 327° |
| 2026-04-26 19:10 | 52.07394 | -0.41625 | 17234 ft | 344 kts | 327° |
| 2026-04-26 19:10 | 52.09466 | -0.43621 | 17871 ft | 346 kts | 327° |
| 2026-04-26 19:10 | 52.11541 | -0.45632 | 18520 ft | 348 kts | 326° |
| 2026-04-26 19:10 | 52.13620 | -0.47662 | 19083 ft | 351 kts | 326° |
| 2026-04-26 19:11 | 52.15730 | -0.49719 | 19633 ft | 354 kts | 326° |
| 2026-04-26 19:11 | 52.17851 | -0.51791 | 20198 ft | 357 kts | 326° |
| 2026-04-26 19:11 | 52.19992 | -0.53879 | 20779 ft | 360 kts | 326° |
| 2026-04-26 19:11 | 52.22150 | -0.55988 | 21300 ft | 363 kts | 326° |
| 2026-04-26 19:12 | 52.24328 | -0.58117 | 21822 ft | 366 kts | 326° |
| 2026-04-26 19:12 | 52.26526 | -0.60255 | 22302 ft | 369 kts | 326° |
| 2026-04-26 19:12 | 52.28711 | -0.62386 | 22788 ft | 372 kts | 326° |
| 2026-04-26 19:12 | 52.30940 | -0.64558 | 23263 ft | 375 kts | 326° |
| 2026-04-26 19:13 | 52.33187 | -0.66756 | 23741 ft | 377 kts | 326° |
| 2026-04-26 19:13 | 52.35452 | -0.68973 | 24155 ft | 380 kts | 326° |
| 2026-04-26 19:13 | 52.37718 | -0.71196 | 24562 ft | 381 kts | 326° |
| 2026-04-26 19:13 | 52.40004 | -0.73437 | 25002 ft | 383 kts | 326° |
| 2026-04-26 19:14 | 52.42294 | -0.75687 | 25446 ft | 385 kts | 326° |
| 2026-04-26 19:14 | 52.44589 | -0.77943 | 25886 ft | 386 kts | 326° |
| 2026-04-26 19:14 | 52.46905 | -0.80223 | 26294 ft | 388 kts | 325° |
| 2026-04-26 19:14 | 52.47682 | -0.80990 | 26424 ft | 389 kts | 325° |
| 2026-04-26 19:15 | 52.51558 | -0.84814 | 27057 ft | 392 kts | 325° |
| 2026-04-26 19:15 | 52.53895 | -0.87126 | 27414 ft | 394 kts | 325° |
| 2026-04-26 19:15 | 52.56249 | -0.89456 | 27755 ft | 395 kts | 325° |
| 2026-04-26 19:15 | 52.58612 | -0.91799 | 28093 ft | 397 kts | 325° |
| 2026-04-26 19:16 | 52.60984 | -0.94151 | 28408 ft | 399 kts | 325° |
| 2026-04-26 19:16 | 52.63369 | -0.96520 | 28755 ft | 400 kts | 325° |
| 2026-04-26 19:16 | 52.65729 | -0.98869 | 29087 ft | 402 kts | 325° |
| 2026-04-26 19:16 | 52.68128 | -1.01258 | 29458 ft | 403 kts | 324° |
| 2026-04-26 19:17 | 52.70537 | -1.03663 | 29778 ft | 406 kts | 324° |
| 2026-04-26 19:17 | 52.72947 | -1.06074 | 30161 ft | 405 kts | 323° |
| 2026-04-26 19:17 | 52.75179 | -1.08868 | 30403 ft | 403 kts | 314° |
| 2026-04-26 19:17 | 52.77239 | -1.12035 | 30651 ft | 404 kts | 312° |
| 2026-04-26 19:18 | 52.79266 | -1.15264 | 30936 ft | 405 kts | 311° |
| 2026-04-26 19:18 | 52.81304 | -1.18507 | 31075 ft | 409 kts | 312° |
| 2026-04-26 19:18 | 52.83365 | -1.21774 | 31296 ft | 410 kts | 312° |
| 2026-04-26 19:18 | 52.85433 | -1.25039 | 31584 ft | 410 kts | 312° |
| 2026-04-26 19:19 | 52.87470 | -1.28260 | 31705 ft | 413 kts | 312° |
| 2026-04-26 19:19 | 52.89557 | -1.31566 | 31848 ft | 415 kts | 312° |
| 2026-04-26 19:19 | 52.91646 | -1.34873 | 32124 ft | 414 kts | 312° |
| 2026-04-26 19:19 | 52.93727 | -1.38172 | 32410 ft | 413 kts | 311° |
| 2026-04-26 19:20 | 52.95803 | -1.41472 | 32686 ft | 413 kts | 311° |
| 2026-04-26 19:20 | 52.99941 | -1.48061 | 33253 ft | 411 kts | 311° |
| 2026-04-26 19:20 | 53.02003 | -1.51353 | 33536 ft | 411 kts | 311° |
| 2026-04-26 19:21 | 53.04061 | -1.54642 | 33788 ft | 411 kts | 310° |
| 2026-04-26 19:21 | 53.06122 | -1.57945 | 34014 ft | 411 kts | 310° |
| 2026-04-26 19:21 | 53.08177 | -1.61242 | 34263 ft | 411 kts | 310° |
| 2026-04-26 19:21 | 53.10238 | -1.64529 | 34486 ft | 410 kts | 311° |
| 2026-04-26 19:22 | 53.12304 | -1.67809 | 34673 ft | 410 kts | 311° |
| 2026-04-26 19:22 | 53.14369 | -1.71096 | 34867 ft | 410 kts | 311° |
| 2026-04-26 19:22 | 53.16437 | -1.74393 | 35070 ft | 410 kts | 311° |
| 2026-04-26 19:22 | 53.18468 | -1.77637 | 35273 ft | 410 kts | 311° |
| 2026-04-26 19:23 | 53.20528 | -1.80934 | 35489 ft | 410 kts | 311° |
| 2026-04-26 19:23 | 53.22584 | -1.84228 | 35701 ft | 409 kts | 312° |
| 2026-04-26 19:23 | 53.24860 | -1.87153 | 35869 ft | 417 kts | 323° |
| 2026-04-26 19:23 | 53.27370 | -1.89616 | 36124 ft | 417 kts | 325° |
| 2026-04-26 19:24 | 53.29040 | -1.91184 | 36243 ft | 417 kts | 326° |
| 2026-04-26 19:24 | 53.32432 | -1.94352 | 36480 ft | 417 kts | 326° |
| 2026-04-26 19:24 | 53.37464 | -1.99090 | 36850 ft | 417 kts | 326° |
| 2026-04-26 19:25 | 53.39987 | -2.01474 | 37014 ft | 417 kts | 326° |
| 2026-04-26 19:25 | 53.40845 | -2.02284 | 37064 ft | 417 kts | 326° |
| 2026-04-26 19:25 | 53.44188 | -2.05454 | 37291 ft | 416 kts | 326° |
| 2026-04-26 19:25 | 53.47568 | -2.08667 | 37430 ft | 418 kts | 326° |
| 2026-04-26 19:26 | 53.51783 | -2.12682 | 37679 ft | 418 kts | 326° |
| 2026-04-26 19:26 | 53.54312 | -2.15095 | 37860 ft | 418 kts | 326° |
| 2026-04-26 19:26 | 53.56839 | -2.17515 | 38018 ft | 417 kts | 324° |
| 2026-04-26 19:27 | 53.59126 | -2.20419 | 38097 ft | 409 kts | 309° |
| 2026-04-26 19:27 | 53.60761 | -2.24220 | 38322 ft | 388 kts | 291° |
| 2026-04-26 19:27 | 53.61788 | -2.28332 | 38508 ft | 386 kts | 289° |
| 2026-04-26 19:27 | 53.62777 | -2.32553 | 38515 ft | 389 kts | 288° |
| 2026-04-26 19:28 | 53.63766 | -2.36836 | 38237 ft | 398 kts | 288° |
| 2026-04-26 19:28 | 53.64780 | -2.41195 | 38304 ft | 399 kts | 288° |
| 2026-04-26 19:28 | 53.66786 | -2.50019 | 38249 ft | 405 kts | 288° |
| 2026-04-26 19:29 | 53.68811 | -2.58966 | 38275 ft | 410 kts | 288° |
| 2026-04-26 19:29 | 53.70855 | -2.68029 | 38285 ft | 416 kts | 288° |
| 2026-04-26 19:30 | 53.72920 | -2.77228 | 38274 ft | 421 kts | 288° |
| 2026-04-26 19:30 | 53.74645 | -2.84935 | 38268 ft | 422 kts | 288° |
| 2026-04-26 19:31 | 53.77055 | -2.95753 | 38260 ft | 422 kts | 288° |
| 2026-04-26 19:31 | 53.79118 | -3.05060 | 38270 ft | 422 kts | 288° |
| 2026-04-26 19:32 | 53.81175 | -3.14383 | 38265 ft | 422 kts | 288° |
| 2026-04-26 19:32 | 53.83223 | -3.23711 | 38265 ft | 423 kts | 288° |
| 2026-04-26 19:33 | 53.85268 | -3.33061 | 38272 ft | 423 kts | 288° |
| 2026-04-26 19:33 | 53.87295 | -3.42374 | 38271 ft | 424 kts | 288° |
| 2026-04-26 19:34 | 53.89326 | -3.51745 | 38278 ft | 423 kts | 288° |
| 2026-04-26 19:34 | 53.91374 | -3.61118 | 38279 ft | 423 kts | 288° |
| 2026-04-26 19:35 | 53.93436 | -3.70480 | 38274 ft | 424 kts | 292° |
| 2026-04-26 19:35 | 53.96388 | -3.79081 | 38242 ft | 412 kts | 299° |
| 2026-04-26 19:36 | 53.97883 | -3.83152 | 38205 ft | 400 kts | 299° |
| 2026-04-26 19:36 | 53.98843 | -3.85771 | 38166 ft | 389 kts | 298° |
| 2026-04-26 19:36 | 54.00689 | -3.90823 | 37871 ft | 372 kts | 298° |
| 2026-04-26 19:36 | 54.02036 | -3.94516 | 37484 ft | 364 kts | 298° |
| 2026-04-26 19:37 | 54.03359 | -3.98153 | 36990 ft | 359 kts | 298° |
| 2026-04-26 19:37 | 54.04665 | -4.01750 | 36420 ft | 357 kts | 297° |
| 2026-04-26 19:37 | 54.05973 | -4.05358 | 35782 ft | 358 kts | 297° |
| 2026-04-26 19:37 | 54.07284 | -4.08980 | 35085 ft | 360 kts | 296° |
| 2026-04-26 19:38 | 54.08609 | -4.12646 | 34325 ft | 365 kts | 296° |
| 2026-04-26 19:38 | 54.09946 | -4.16359 | 33371 ft | 371 kts | 296° |
| 2026-04-26 19:38 | 54.11290 | -4.20100 | 32437 ft | 377 kts | 296° |
| 2026-04-26 19:38 | 54.12672 | -4.23953 | 31470 ft | 383 kts | 297° |
| 2026-04-26 19:39 | 54.14073 | -4.27866 | 30564 ft | 388 kts | 297° |
| 2026-04-26 19:39 | 54.15481 | -4.31807 | 29650 ft | 389 kts | 297° |
| 2026-04-26 19:39 | 54.16883 | -4.35736 | 28894 ft | 386 kts | 298° |
| 2026-04-26 19:39 | 54.18269 | -4.39637 | 28206 ft | 382 kts | 298° |
| 2026-04-26 19:40 | 54.19637 | -4.43495 | 27537 ft | 378 kts | 298° |
| 2026-04-26 19:40 | 54.20285 | -4.45329 | 27228 ft | 376 kts | 298° |
| 2026-04-26 19:40 | 54.21284 | -4.48157 | 26737 ft | 373 kts | 298° |
| 2026-04-26 19:40 | 54.22617 | -4.51937 | 26120 ft | 369 kts | 299° |
| 2026-04-26 19:41 | 54.23933 | -4.55677 | 25577 ft | 363 kts | 299° |
| 2026-04-26 19:41 | 54.25272 | -4.59258 | 25002 ft | 360 kts | 303° |
| 2026-04-26 19:41 | 54.26743 | -4.62769 | 24427 ft | 357 kts | 304° |
| 2026-04-26 19:41 | 54.27704 | -4.65050 | 24050 ft | 355 kts | 304° |
| 2026-04-26 19:42 | 54.29591 | -4.69594 | 23224 ft | 351 kts | 304° |
| 2026-04-26 19:42 | 54.30987 | -4.73000 | 22594 ft | 348 kts | 304° |
| 2026-04-26 19:42 | 54.32364 | -4.76382 | 21977 ft | 344 kts | 304° |
| 2026-04-26 19:42 | 54.33722 | -4.79728 | 21384 ft | 341 kts | 304° |
| 2026-04-26 19:43 | 54.35071 | -4.83060 | 20807 ft | 338 kts | 304° |
| 2026-04-26 19:43 | 54.36403 | -4.86355 | 20245 ft | 335 kts | 304° |
| 2026-04-26 19:43 | 54.37722 | -4.89622 | 19694 ft | 332 kts | 304° |
| 2026-04-26 19:43 | 54.39029 | -4.92864 | 19154 ft | 329 kts | 304° |
| 2026-04-26 19:44 | 54.40323 | -4.96080 | 18651 ft | 326 kts | 304° |
| 2026-04-26 19:44 | 54.41602 | -4.99260 | 18094 ft | 322 kts | 304° |
| 2026-04-26 19:44 | 54.42871 | -5.02421 | 17489 ft | 320 kts | 304° |
| 2026-04-26 19:44 | 54.44126 | -5.05553 | 16918 ft | 317 kts | 303° |
| 2026-04-26 19:45 | 54.45374 | -5.08663 | 16353 ft | 315 kts | 303° |
| 2026-04-26 19:45 | 54.46618 | -5.11746 | 15788 ft | 313 kts | 303° |
| 2026-04-26 19:45 | 54.47850 | -5.14813 | 15264 ft | 311 kts | 303° |
| 2026-04-26 19:45 | 54.49076 | -5.17863 | 14738 ft | 309 kts | 303° |
| 2026-04-26 19:46 | 54.50110 | -5.21048 | 13925 ft | 314 kts | 288° |
| 2026-04-26 19:46 | 54.50288 | -5.24785 | 13224 ft | 314 kts | 263° |
| 2026-04-26 19:46 | 54.49970 | -5.28432 | 12845 ft | 305 kts | 262° |
| 2026-04-26 19:46 | 54.49658 | -5.32009 | 12431 ft | 298 kts | 262° |
| 2026-04-26 19:47 | 54.49355 | -5.35495 | 12055 ft | 292 kts | 262° |
| 2026-04-26 19:47 | 54.49157 | -5.37761 | 11799 ft | 288 kts | 262° |
| 2026-04-26 19:47 | 54.48765 | -5.42209 | 11316 ft | 281 kts | 262° |
| 2026-04-26 19:47 | 54.48434 | -5.45497 | 10950 ft | 278 kts | 255° |
| 2026-04-26 19:48 | 54.47640 | -5.48512 | 10635 ft | 276 kts | 243° |
| 2026-04-26 19:48 | 54.46719 | -5.51428 | 10266 ft | 278 kts | 244° |
| 2026-04-26 19:48 | 54.45794 | -5.54355 | 9921 ft | 277 kts | 243° |
| 2026-04-26 19:48 | 54.44887 | -5.57224 | 9601 ft | 276 kts | 243° |
| 2026-04-26 19:49 | 54.43977 | -5.60118 | 9261 ft | 275 kts | 243° |
| 2026-04-26 19:49 | 54.43073 | -5.63003 | 8937 ft | 273 kts | 243° |
| 2026-04-26 19:49 | 54.42176 | -5.65882 | 8600 ft | 272 kts | 243° |
| 2026-04-26 19:49 | 54.41287 | -5.68745 | 8267 ft | 270 kts | 243° |
| 2026-04-26 19:50 | 54.40409 | -5.71586 | 7928 ft | 269 kts | 243° |
| 2026-04-26 19:50 | 54.39539 | -5.74418 | 7608 ft | 267 kts | 243° |
| 2026-04-26 19:50 | 54.38677 | -5.77233 | 7283 ft | 265 kts | 243° |
| 2026-04-26 19:50 | 54.37827 | -5.80029 | 6961 ft | 262 kts | 243° |
| 2026-04-26 19:51 | 54.36996 | -5.82774 | 6631 ft | 258 kts | 243° |
| 2026-04-26 19:51 | 54.36177 | -5.85487 | 6114 ft | 260 kts | 243° |
| 2026-04-26 19:51 | 54.35344 | -5.88232 | 5688 ft | 252 kts | 244° |
| 2026-04-26 19:51 | 54.34552 | -5.90791 | 5109 ft | 245 kts | 243° |
| 2026-04-26 19:52 | 54.33740 | -5.93387 | 4360 ft | 246 kts | 244° |
| 2026-04-26 19:52 | 54.32931 | -5.95932 | 3875 ft | 237 kts | 243° |
| 2026-04-26 19:52 | 54.32416 | -5.98493 | 3456 ft | 222 kts | 269° |
| 2026-04-26 19:52 | 54.32776 | -6.00932 | 3063 ft | 206 kts | 304° |
| 2026-04-26 19:53 | 54.33630 | -6.02759 | 2931 ft | 190 kts | 309° |
| 2026-04-26 19:53 | 54.34427 | -6.04499 | 2752 ft | 181 kts | 308° |
| 2026-04-26 19:53 | 54.35186 | -6.06155 | 2573 ft | 173 kts | 308° |
| 2026-04-26 19:53 | 54.35908 | -6.07744 | 2433 ft | 164 kts | 311° |
| 2026-04-26 19:54 | 54.36765 | -6.08953 | 2277 ft | 157 kts | 332° |
| 2026-04-26 19:54 | 54.37818 | -6.09354 | 2125 ft | 156 kts | 358° |
| 2026-04-26 19:54 | 54.38902 | -6.09360 | 1988 ft | 157 kts | 2° |
| 2026-04-26 19:54 | 54.39967 | -6.09143 | 2049 ft | 154 kts | 6° |
| 2026-04-26 19:55 | 54.41050 | -6.08967 | 2082 ft | 157 kts | 3° |
| 2026-04-26 19:55 | 54.42147 | -6.08828 | 2090 ft | 158 kts | 4° |
| 2026-04-26 19:55 | 54.43229 | -6.08651 | 2100 ft | 158 kts | 4° |
| 2026-04-26 19:55 | 54.44294 | -6.08180 | 2003 ft | 163 kts | 30° |
| 2026-04-26 19:56 | 54.45176 | -6.06995 | 2007 ft | 160 kts | 36° |
| 2026-04-26 19:56 | 54.46102 | -6.05934 | 1994 ft | 160 kts | 29° |
| 2026-04-26 19:56 | 54.47038 | -6.04883 | 1993 ft | 160 kts | 33° |
| 2026-04-26 19:56 | 54.47941 | -6.03768 | 1993 ft | 160 kts | 33° |
| 2026-04-26 19:57 | 54.48848 | -6.02701 | 1990 ft | 160 kts | 32° |
| 2026-04-26 19:57 | 54.49763 | -6.01617 | 1989 ft | 160 kts | 32° |
| 2026-04-26 19:57 | 54.50371 | -6.00897 | 1986 ft | 153 kts | 33° |
| 2026-04-26 19:57 | 54.51446 | -5.99621 | 1939 ft | 132 kts | 32° |
| 2026-04-26 19:58 | 54.52194 | -5.98728 | 1972 ft | 131 kts | 32° |
| 2026-04-26 19:58 | 54.52955 | -5.97823 | 2058 ft | 137 kts | 33° |
| 2026-04-26 19:58 | 54.53765 | -5.96857 | 1808 ft | 143 kts | 33° |
| 2026-04-26 19:58 | 54.54561 | -5.95909 | 1624 ft | 136 kts | 32° |
| 2026-04-26 19:59 | 54.55333 | -5.94988 | 1454 ft | 134 kts | 33° |
| 2026-04-26 19:59 | 54.56090 | -5.94090 | 1287 ft | 133 kts | 33° |
| 2026-04-26 19:59 | 54.56854 | -5.93176 | 1102 ft | 133 kts | 33° |
| 2026-04-26 19:59 | 54.57614 | -5.92269 | 911 ft | 133 kts | 34° |
| 2026-04-26 20:00 | 54.58369 | -5.91367 | 731 ft | 132 kts | 34° |
| 2026-04-26 20:00 | 54.59122 | -5.90470 | 548 ft | 130 kts | 35° |
| 2026-04-26 20:00 | 54.59872 | -5.89571 | 380 ft | 133 kts | 35° |
| 2026-04-26 20:00 | 54.60648 | -5.88643 | 201 ft | 137 kts | 35° |
| 2026-04-26 20:01 | 54.61423 | -5.87717 | 15 ft | 132 kts | 35° |
| 2026-04-26 20:01 | 54.62049 | -5.86966 | 16 ft | 81 kts | 37° |
| 2026-04-26 20:01 | 54.62290 | -5.86699 | 19 ft | 11 kts | 11° |
| 2026-04-26 20:01 | 54.62290 | -5.86679 | 19 ft | 2 kts | 149° |
| 2026-04-26 20:02 | 54.62263 | -5.86708 | 19 ft | 11 kts | 209° |
| 2026-04-26 20:02 | 54.62174 | -5.86811 | 17 ft | 18 kts | 213° |
| 2026-04-26 20:02 | 54.62063 | -5.86943 | 16 ft | 20 kts | 218° |
| 2026-04-26 20:02 | 54.61986 | -5.87041 | 15 ft | 22 kts | 217° |
| 2026-04-26 20:03 | 54.61836 | -5.87165 | 17 ft | 14 kts | 152° |
| 2026-04-26 20:03 | 54.61779 | -5.87034 | 20 ft | 13 kts | 123° |
| 2026-04-26 20:03 | 54.61714 | -5.87006 | 20 ft | 11 kts | 210° |
| 2026-04-26 20:03 | 54.61650 | -5.87082 | 20 ft | 8 kts | 216° |
| 2026-04-26 20:04 | 54.61616 | -5.87063 | 22 ft | 6 kts | 129° |
| 2026-04-26 20:04 | 54.61604 | -5.87033 | 20 ft | 2 kts | 124° |
| 2026-04-26 20:04 | 54.61601 | -5.87024 | 20 ft | 0 kts | 124° |